sensor_id;sensor_type;location;lat;lon;timestamp;temperature;humidity
67862;DHT22;54665;51.462;6.698;2022-08-21T00:00:40;15.96;82.30
67862;DHT22;54665;51.462;6.698;2022-08-21T00:03:08;15.81;82.73
67862;DHT22;54665;51.462;6.698;2022-08-21T00:05:38;15.70;83.57
67862;DHT22;54665;51.462;6.698;2022-08-21T00:08:04;15.55;84.10
67862;DHT22;54665;51.462;6.698;2022-08-21T00:10:30;15.41;84.72
67862;DHT22;54665;51.462;6.698;2022-08-21T00:12:56;15.30;85.28
67862;DHT22;54665;51.462;6.698;2022-08-21T00:15:25;15.17;85.68
67862;DHT22;54665;51.462;6.698;2022-08-21T00:17:54;15.03;85.97
67862;DHT22;54665;51.462;6.698;2022-08-21T00:20:20;14.91;86.44
67862;DHT22;54665;51.462;6.698;2022-08-21T00:22:46;14.83;86.70
67862;DHT22;54665;51.462;6.698;2022-08-21T00:25:13;14.74;87.28
67862;DHT22;54665;51.462;6.698;2022-08-21T00:27:39;14.72;87.66
67862;DHT22;54665;51.462;6.698;2022-08-21T00:30:06;14.62;87.82
67862;DHT22;54665;51.462;6.698;2022-08-21T00:32:33;14.56;88.16
67862;DHT22;54665;51.462;6.698;2022-08-21T00:34:58;14.42;88.28
67862;DHT22;54665;51.462;6.698;2022-08-21T00:37:24;14.34;88.38
67862;DHT22;54665;51.462;6.698;2022-08-21T00:39:50;14.28;88.63
67862;DHT22;54665;51.462;6.698;2022-08-21T00:42:16;14.23;88.93
67862;DHT22;54665;51.462;6.698;2022-08-21T00:44:46;14.26;89.44
67862;DHT22;54665;51.462;6.698;2022-08-21T00:47:13;14.22;89.40
67862;DHT22;54665;51.462;6.698;2022-08-21T00:49:39;14.18;89.47
67862;DHT22;54665;51.462;6.698;2022-08-21T00:52:07;14.12;89.76
67862;DHT22;54665;51.462;6.698;2022-08-21T00:54:34;14.11;90.09
67862;DHT22;54665;51.462;6.698;2022-08-21T00:57:06;14.06;89.47
67862;DHT22;54665;51.462;6.698;2022-08-21T00:59:35;14.00;89.48
67862;DHT22;54665;51.462;6.698;2022-08-21T01:02:02;13.98;89.96
67862;DHT22;54665;51.462;6.698;2022-08-21T01:04:27;13.95;90.33
67862;DHT22;54665;51.462;6.698;2022-08-21T01:06:53;13.91;90.52
67862;DHT22;54665;51.462;6.698;2022-08-21T01:09:20;13.91;90.91
67862;DHT22;54665;51.462;6.698;2022-08-21T01:11:46;13.85;91.11
67862;DHT22;54665;51.462;6.698;2022-08-21T01:14:12;13.78;91.26
67862;DHT22;54665;51.462;6.698;2022-08-21T01:16:42;13.72;91.27
67862;DHT22;54665;51.462;6.698;2022-08-21T01:19:08;13.65;91.53
67862;DHT22;54665;51.462;6.698;2022-08-21T01:21:34;13.67;91.80
67862;DHT22;54665;51.462;6.698;2022-08-21T01:23:59;13.67;91.99
67862;DHT22;54665;51.462;6.698;2022-08-21T01:26:30;13.65;92.14
67862;DHT22;54665;51.462;6.698;2022-08-21T01:29:03;13.65;92.33
67862;DHT22;54665;51.462;6.698;2022-08-21T01:31:30;13.65;92.53
67862;DHT22;54665;51.462;6.698;2022-08-21T01:33:58;13.65;92.64
67862;DHT22;54665;51.462;6.698;2022-08-21T01:36:24;13.67;92.68
67862;DHT22;54665;51.462;6.698;2022-08-21T01:38:50;13.67;92.81
67862;DHT22;54665;51.462;6.698;2022-08-21T01:41:16;13.67;92.85
67862;DHT22;54665;51.462;6.698;2022-08-21T01:43:42;13.65;92.96
67862;DHT22;54665;51.462;6.698;2022-08-21T01:46:09;13.64;93.01
67862;DHT22;54665;51.462;6.698;2022-08-21T01:48:35;13.54;93.01
67862;DHT22;54665;51.462;6.698;2022-08-21T01:51:01;13.48;93.04
67862;DHT22;54665;51.462;6.698;2022-08-21T01:53:26;13.40;93.15
67862;DHT22;54665;51.462;6.698;2022-08-21T01:55:52;13.39;93.37
67862;DHT22;54665;51.462;6.698;2022-08-21T01:58:17;13.37;93.47
67862;DHT22;54665;51.462;6.698;2022-08-21T02:00:42;13.39;93.56
67862;DHT22;54665;51.462;6.698;2022-08-21T02:03:08;13.34;93.64
67862;DHT22;54665;51.462;6.698;2022-08-21T02:05:34;13.26;93.67
67862;DHT22;54665;51.462;6.698;2022-08-21T02:08:00;13.27;93.80
67862;DHT22;54665;51.462;6.698;2022-08-21T02:10:29;13.27;93.96
67862;DHT22;54665;51.462;6.698;2022-08-21T02:12:56;13.36;94.12
67862;DHT22;54665;51.462;6.698;2022-08-21T02:15:22;13.41;94.24
67862;DHT22;54665;51.462;6.698;2022-08-21T02:17:53;13.51;94.35
67862;DHT22;54665;51.462;6.698;2022-08-21T02:20:25;13.65;94.45
67862;DHT22;54665;51.462;6.698;2022-08-21T02:22:50;13.65;94.29
67862;DHT22;54665;51.462;6.698;2022-08-21T02:25:18;13.65;94.27
67862;DHT22;54665;51.462;6.698;2022-08-21T02:27:45;13.62;94.23
67862;DHT22;54665;51.462;6.698;2022-08-21T02:30:15;13.58;94.23
67862;DHT22;54665;51.462;6.698;2022-08-21T02:32:41;13.54;94.22
67862;DHT22;54665;51.462;6.698;2022-08-21T02:35:08;13.48;94.26
67862;DHT22;54665;51.462;6.698;2022-08-21T02:37:41;13.48;94.29
67862;DHT22;54665;51.462;6.698;2022-08-21T02:40:07;13.43;94.36
67862;DHT22;54665;51.462;6.698;2022-08-21T02:42:36;13.33;94.43
67862;DHT22;54665;51.462;6.698;2022-08-21T02:45:03;13.19;94.48
67862;DHT22;54665;51.462;6.698;2022-08-21T02:47:28;13.16;94.56
67862;DHT22;54665;51.462;6.698;2022-08-21T02:49:54;13.10;94.65
67862;DHT22;54665;51.462;6.698;2022-08-21T02:52:19;13.07;94.77
67862;DHT22;54665;51.462;6.698;2022-08-21T02:54:45;13.02;94.74
67862;DHT22;54665;51.462;6.698;2022-08-21T02:57:10;13.03;94.91
67862;DHT22;54665;51.462;6.698;2022-08-21T02:59:36;13.09;95.04
67862;DHT22;54665;51.462;6.698;2022-08-21T03:02:01;13.13;95.21
67862;DHT22;54665;51.462;6.698;2022-08-21T03:04:27;13.17;95.22
67862;DHT22;54665;51.462;6.698;2022-08-21T03:06:52;13.23;95.33
67862;DHT22;54665;51.462;6.698;2022-08-21T03:09:18;13.27;95.36
67862;DHT22;54665;51.462;6.698;2022-08-21T03:11:43;13.27;95.44
67862;DHT22;54665;51.462;6.698;2022-08-21T03:14:08;13.27;95.46
67862;DHT22;54665;51.462;6.698;2022-08-21T03:16:34;13.21;95.41
67862;DHT22;54665;51.462;6.698;2022-08-21T03:19:00;13.19;95.44
67862;DHT22;54665;51.462;6.698;2022-08-21T03:21:25;13.19;95.48
67862;DHT22;54665;51.462;6.698;2022-08-21T03:23:51;13.19;95.53
67862;DHT22;54665;51.462;6.698;2022-08-21T03:26:16;13.16;95.54
67862;DHT22;54665;51.462;6.698;2022-08-21T03:28:42;13.17;95.66
67862;DHT22;54665;51.462;6.698;2022-08-21T03:31:08;13.19;95.69
67862;DHT22;54665;51.462;6.698;2022-08-21T03:33:34;13.10;95.72
67862;DHT22;54665;51.462;6.698;2022-08-21T03:36:03;13.09;95.73
67862;DHT22;54665;51.462;6.698;2022-08-21T03:38:30;13.17;95.79
67862;DHT22;54665;51.462;6.698;2022-08-21T03:40:55;13.26;95.87
67862;DHT22;54665;51.462;6.698;2022-08-21T03:43:21;13.27;95.93
67862;DHT22;54665;51.462;6.698;2022-08-21T03:45:46;13.17;95.89
67862;DHT22;54665;51.462;6.698;2022-08-21T03:48:12;13.07;95.81
67862;DHT22;54665;51.462;6.698;2022-08-21T03:50:40;12.93;95.85
67862;DHT22;54665;51.462;6.698;2022-08-21T03:53:07;12.79;95.85
67862;DHT22;54665;51.462;6.698;2022-08-21T03:55:33;12.80;95.89
67862;DHT22;54665;51.462;6.698;2022-08-21T03:57:58;12.82;95.99
67862;DHT22;54665;51.462;6.698;2022-08-21T04:00:24;12.83;96.08
67862;DHT22;54665;51.462;6.698;2022-08-21T04:02:50;12.89;96.09
67862;DHT22;54665;51.462;6.698;2022-08-21T04:05:18;12.95;96.17
67862;DHT22;54665;51.462;6.698;2022-08-21T04:08:03;12.97;96.23
67862;DHT22;54665;51.462;6.698;2022-08-21T04:10:31;13.00;96.22
67862;DHT22;54665;51.462;6.698;2022-08-21T04:12:57;12.99;96.23
67862;DHT22;54665;51.462;6.698;2022-08-21T04:15:24;12.93;96.27
67862;DHT22;54665;51.462;6.698;2022-08-21T04:17:50;12.93;96.32
67862;DHT22;54665;51.462;6.698;2022-08-21T04:20:19;12.96;96.33
67862;DHT22;54665;51.462;6.698;2022-08-21T04:22:47;12.99;96.38
67862;DHT22;54665;51.462;6.698;2022-08-21T04:25:14;13.04;96.40
67862;DHT22;54665;51.462;6.698;2022-08-21T04:27:40;13.12;96.44
67862;DHT22;54665;51.462;6.698;2022-08-21T04:30:07;13.14;96.45
67862;DHT22;54665;51.462;6.698;2022-08-21T04:32:35;13.19;96.46
67862;DHT22;54665;51.462;6.698;2022-08-21T04:35:07;13.14;96.50
67862;DHT22;54665;51.462;6.698;2022-08-21T04:37:33;13.13;96.49
67862;DHT22;54665;51.462;6.698;2022-08-21T04:39:58;13.14;96.51
67862;DHT22;54665;51.462;6.698;2022-08-21T04:42:26;13.16;96.56
67862;DHT22;54665;51.462;6.698;2022-08-21T04:44:51;13.23;96.51
67862;DHT22;54665;51.462;6.698;2022-08-21T04:47:17;13.26;96.53
67862;DHT22;54665;51.462;6.698;2022-08-21T04:49:43;13.24;96.54
67862;DHT22;54665;51.462;6.698;2022-08-21T04:52:09;13.34;96.56
67862;DHT22;54665;51.462;6.698;2022-08-21T04:54:36;13.36;96.56
67862;DHT22;54665;51.462;6.698;2022-08-21T04:57:06;13.36;96.58
67862;DHT22;54665;51.462;6.698;2022-08-21T04:59:40;13.37;96.55
67862;DHT22;54665;51.462;6.698;2022-08-21T05:02:07;13.44;96.53
67862;DHT22;54665;51.462;6.698;2022-08-21T05:04:37;13.47;96.49
67862;DHT22;54665;51.462;6.698;2022-08-21T05:07:09;13.57;96.49
67862;DHT22;54665;51.462;6.698;2022-08-21T05:09:37;13.61;96.45
67862;DHT22;54665;51.462;6.698;2022-08-21T05:12:03;13.70;96.46
67862;DHT22;54665;51.462;6.698;2022-08-21T05:14:29;13.64;96.42
67862;DHT22;54665;51.462;6.698;2022-08-21T05:16:55;13.70;96.35
67862;DHT22;54665;51.462;6.698;2022-08-21T05:19:20;13.70;96.25
67862;DHT22;54665;51.462;6.698;2022-08-21T05:21:46;13.77;96.21
67862;DHT22;54665;51.462;6.698;2022-08-21T05:24:13;13.81;96.08
67862;DHT22;54665;51.462;6.698;2022-08-21T05:26:39;13.91;95.95
67862;DHT22;54665;51.462;6.698;2022-08-21T05:29:05;13.95;95.79
67862;DHT22;54665;51.462;6.698;2022-08-21T05:31:30;14.00;95.57
67862;DHT22;54665;51.462;6.698;2022-08-21T05:33:56;14.08;95.38
67862;DHT22;54665;51.462;6.698;2022-08-21T05:36:22;14.16;94.97
67862;DHT22;54665;51.462;6.698;2022-08-21T05:38:47;14.16;94.86
67862;DHT22;54665;51.462;6.698;2022-08-21T05:41:13;14.23;94.41
67862;DHT22;54665;51.462;6.698;2022-08-21T05:43:39;14.34;93.59
67862;DHT22;54665;51.462;6.698;2022-08-21T05:46:06;14.37;93.01
67862;DHT22;54665;51.462;6.698;2022-08-21T05:48:32;14.44;92.58
67862;DHT22;54665;51.462;6.698;2022-08-21T05:51:09;14.55;91.34
67862;DHT22;54665;51.462;6.698;2022-08-21T05:53:36;14.64;90.86
67862;DHT22;54665;51.462;6.698;2022-08-21T05:56:02;14.66;90.33
67862;DHT22;54665;51.462;6.698;2022-08-21T05:58:29;14.73;89.73
67862;DHT22;54665;51.462;6.698;2022-08-21T06:00:54;14.79;88.70
67862;DHT22;54665;51.462;6.698;2022-08-21T06:03:25;14.87;88.99
67862;DHT22;54665;51.462;6.698;2022-08-21T06:05:51;14.91;88.45
67862;DHT22;54665;51.462;6.698;2022-08-21T06:08:18;14.97;87.22
67862;DHT22;54665;51.462;6.698;2022-08-21T06:10:45;15.01;86.91
67862;DHT22;54665;51.462;6.698;2022-08-21T06:13:11;15.11;86.88
67862;DHT22;54665;51.462;6.698;2022-08-21T06:15:37;15.15;86.29
67862;DHT22;54665;51.462;6.698;2022-08-21T06:18:03;15.21;85.97
67862;DHT22;54665;51.462;6.698;2022-08-21T06:20:29;15.31;85.02
67862;DHT22;54665;51.462;6.698;2022-08-21T06:22:55;15.36;84.45
67862;DHT22;54665;51.462;6.698;2022-08-21T06:25:20;15.51;84.48
67862;DHT22;54665;51.462;6.698;2022-08-21T06:27:46;15.62;83.57
67862;DHT22;54665;51.462;6.698;2022-08-21T06:30:12;15.72;83.02
67862;DHT22;54665;51.462;6.698;2022-08-21T06:32:38;15.79;83.08
67862;DHT22;54665;51.462;6.698;2022-08-21T06:35:04;15.92;82.21
67862;DHT22;54665;51.462;6.698;2022-08-21T06:37:30;16.00;82.15
67862;DHT22;54665;51.462;6.698;2022-08-21T06:39:56;16.13;81.46
67862;DHT22;54665;51.462;6.698;2022-08-21T06:42:21;16.26;80.47
67862;DHT22;54665;51.462;6.698;2022-08-21T06:44:48;16.46;79.46
67862;DHT22;54665;51.462;6.698;2022-08-21T06:47:14;16.55;79.67
67862;DHT22;54665;51.462;6.698;2022-08-21T06:49:40;16.75;79.53
67862;DHT22;54665;51.462;6.698;2022-08-21T06:52:11;16.84;79.14
67862;DHT22;54665;51.462;6.698;2022-08-21T06:54:36;17.05;78.49
67862;DHT22;54665;51.462;6.698;2022-08-21T06:57:02;17.25;76.95
67862;DHT22;54665;51.462;6.698;2022-08-21T06:59:28;17.63;74.96
67862;DHT22;54665;51.462;6.698;2022-08-21T07:01:53;19.09;69.89
67862;DHT22;54665;51.462;6.698;2022-08-21T07:04:18;20.79;63.68
67862;DHT22;54665;51.462;6.698;2022-08-21T07:06:45;21.96;59.71
67862;DHT22;54665;51.462;6.698;2022-08-21T07:09:10;22.53;57.29
67862;DHT22;54665;51.462;6.698;2022-08-21T07:11:36;23.02;55.23
67862;DHT22;54665;51.462;6.698;2022-08-21T07:14:02;23.47;54.07
67862;DHT22;54665;51.462;6.698;2022-08-21T07:16:28;23.09;53.52
67862;DHT22;54665;51.462;6.698;2022-08-21T07:18:53;23.33;53.72
67862;DHT22;54665;51.462;6.698;2022-08-21T07:21:19;23.36;54.13
67862;DHT22;54665;51.462;6.698;2022-08-21T07:23:47;23.59;52.55
67862;DHT22;54665;51.462;6.698;2022-08-21T07:26:16;23.70;53.17
67862;DHT22;54665;51.462;6.698;2022-08-21T07:28:41;24.00;52.19
67862;DHT22;54665;51.462;6.698;2022-08-21T07:31:09;23.84;51.81
67862;DHT22;54665;51.462;6.698;2022-08-21T07:33:35;22.76;54.25
67862;DHT22;54665;51.462;6.698;2022-08-21T07:36:01;22.60;54.61
67862;DHT22;54665;51.462;6.698;2022-08-21T07:38:27;22.61;54.60
67862;DHT22;54665;51.462;6.698;2022-08-21T07:40:54;22.53;55.25
67862;DHT22;54665;51.462;6.698;2022-08-21T07:43:20;22.81;54.17
67862;DHT22;54665;51.462;6.698;2022-08-21T07:45:47;22.50;54.82
67862;DHT22;54665;51.462;6.698;2022-08-21T07:48:15;22.40;55.29
67862;DHT22;54665;51.462;6.698;2022-08-21T07:50:41;22.71;54.48
67862;DHT22;54665;51.462;6.698;2022-08-21T07:53:07;22.64;55.05
67862;DHT22;54665;51.462;6.698;2022-08-21T07:55:33;23.20;53.59
67862;DHT22;54665;51.462;6.698;2022-08-21T07:57:58;23.43;53.57
67862;DHT22;54665;51.462;6.698;2022-08-21T08:00:25;23.62;52.68
67862;DHT22;54665;51.462;6.698;2022-08-21T08:02:52;23.26;52.84
67862;DHT22;54665;51.462;6.698;2022-08-21T08:05:21;24.52;50.88
67862;DHT22;54665;51.462;6.698;2022-08-21T08:07:47;24.71;49.09
67862;DHT22;54665;51.462;6.698;2022-08-21T08:10:12;24.25;49.12
67862;DHT22;54665;51.462;6.698;2022-08-21T08:12:40;24.83;47.78
67862;DHT22;54665;51.462;6.698;2022-08-21T08:15:09;24.95;48.83
67862;DHT22;54665;51.462;6.698;2022-08-21T08:17:35;25.28;46.88
67862;DHT22;54665;51.462;6.698;2022-08-21T08:20:03;24.47;47.90
67862;DHT22;54665;51.462;6.698;2022-08-21T08:22:28;24.32;48.86
67862;DHT22;54665;51.462;6.698;2022-08-21T08:24:54;24.41;48.97
67862;DHT22;54665;51.462;6.698;2022-08-21T08:27:20;24.11;49.63
67862;DHT22;54665;51.462;6.698;2022-08-21T08:29:46;24.90;48.11
67862;DHT22;54665;51.462;6.698;2022-08-21T08:32:12;24.80;47.66
67862;DHT22;54665;51.462;6.698;2022-08-21T08:34:38;24.54;48.70
67862;DHT22;54665;51.462;6.698;2022-08-21T08:37:06;25.16;47.37
67862;DHT22;54665;51.462;6.698;2022-08-21T08:39:32;25.06;47.95
67862;DHT22;54665;51.462;6.698;2022-08-21T08:44:29;26.77;45.11
67862;DHT22;54665;51.462;6.698;2022-08-21T08:46:56;27.20;43.79
67862;DHT22;54665;51.462;6.698;2022-08-21T08:49:31;25.89;45.13
67862;DHT22;54665;51.462;6.698;2022-08-21T08:52:20;25.09;47.77
67862;DHT22;54665;51.462;6.698;2022-08-21T08:54:51;24.89;47.98
67862;DHT22;54665;51.462;6.698;2022-08-21T08:57:22;24.69;49.75
67862;DHT22;54665;51.462;6.698;2022-08-21T08:59:55;24.52;48.81
67862;DHT22;54665;51.462;6.698;2022-08-21T09:02:23;23.81;50.60
67862;DHT22;54665;51.462;6.698;2022-08-21T09:04:50;24.22;49.88
67862;DHT22;54665;51.462;6.698;2022-08-21T09:10:09;24.41;49.27
67862;DHT22;54665;51.462;6.698;2022-08-21T09:12:50;24.01;50.11
67862;DHT22;54665;51.462;6.698;2022-08-21T09:15:23;24.42;50.07
67862;DHT22;54665;51.462;6.698;2022-08-21T09:20:36;26.31;46.34
67862;DHT22;54665;51.462;6.698;2022-08-21T09:24:00;26.77;44.44
67862;DHT22;54665;51.462;6.698;2022-08-21T09:26:30;26.96;43.09
67862;DHT22;54665;51.462;6.698;2022-08-21T09:28:59;27.15;43.71
67862;DHT22;54665;51.462;6.698;2022-08-21T09:31:33;26.56;44.37
67862;DHT22;54665;51.462;6.698;2022-08-21T09:34:10;26.33;44.30
67862;DHT22;54665;51.462;6.698;2022-08-21T09:39:08;26.14;45.20
67862;DHT22;54665;51.462;6.698;2022-08-21T09:41:35;25.95;45.60
67862;DHT22;54665;51.462;6.698;2022-08-21T09:44:03;25.66;46.90
67862;DHT22;54665;51.462;6.698;2022-08-21T09:46:29;25.92;46.14
67862;DHT22;54665;51.462;6.698;2022-08-21T09:48:58;26.75;43.78
67862;DHT22;54665;51.462;6.698;2022-08-21T09:51:27;27.38;41.35
67862;DHT22;54665;51.462;6.698;2022-08-21T09:56:20;27.03;42.79
67862;DHT22;54665;51.462;6.698;2022-08-21T09:59:34;26.31;43.38
67862;DHT22;54665;51.462;6.698;2022-08-21T10:02:03;25.80;44.80
67862;DHT22;54665;51.462;6.698;2022-08-21T10:04:34;26.31;44.41
67862;DHT22;54665;51.462;6.698;2022-08-21T10:07:11;26.56;44.82
67862;DHT22;54665;51.462;6.698;2022-08-21T10:09:38;25.85;45.29
67862;DHT22;54665;51.462;6.698;2022-08-21T10:19:54;26.88;43.10
67862;DHT22;54665;51.462;6.698;2022-08-21T10:22:32;26.35;42.89
67862;DHT22;54665;51.462;6.698;2022-08-21T10:25:41;26.75;43.05
67862;DHT22;54665;51.462;6.698;2022-08-21T10:28:12;26.33;42.85
67862;DHT22;54665;51.462;6.698;2022-08-21T10:31:24;26.02;43.72
67862;DHT22;54665;51.462;6.698;2022-08-21T10:36:26;26.52;44.50
67862;DHT22;54665;51.462;6.698;2022-08-21T10:42:12;26.52;43.65
67862;DHT22;54665;51.462;6.698;2022-08-21T10:47:24;26.75;42.74
67862;DHT22;54665;51.462;6.698;2022-08-21T10:50:08;26.22;43.81
67862;DHT22;54665;51.462;6.698;2022-08-21T10:55:52;25.43;46.66
67862;DHT22;54665;51.462;6.698;2022-08-21T10:58:30;25.33;45.55
67862;DHT22;54665;51.462;6.698;2022-08-21T11:01:07;24.95;46.07
67862;DHT22;54665;51.462;6.698;2022-08-21T11:03:44;24.73;47.14
67862;DHT22;54665;51.462;6.698;2022-08-21T11:06:20;24.13;49.13
67862;DHT22;54665;51.462;6.698;2022-08-21T11:08:53;24.90;48.33
67862;DHT22;54665;51.462;6.698;2022-08-21T11:14:01;25.00;45.55
67862;DHT22;54665;51.462;6.698;2022-08-21T11:16:53;25.43;44.92
67862;DHT22;54665;51.462;6.698;2022-08-21T11:29:46;26.33;43.75
67862;DHT22;54665;51.462;6.698;2022-08-21T11:32:31;26.59;42.69
67862;DHT22;54665;51.462;6.698;2022-08-21T11:35:34;26.31;43.96
67862;DHT22;54665;51.462;6.698;2022-08-21T11:38:16;27.26;41.78
67862;DHT22;54665;51.462;6.698;2022-08-21T11:43:49;28.05;39.20
67862;DHT22;54665;51.462;6.698;2022-08-21T11:51:54;27.58;40.77
67862;DHT22;54665;51.462;6.698;2022-08-21T11:54:29;27.73;41.36
67862;DHT22;54665;51.462;6.698;2022-08-21T11:57:02;27.45;40.87
67862;DHT22;54665;51.462;6.698;2022-08-21T11:59:42;27.30;41.29
67862;DHT22;54665;51.462;6.698;2022-08-21T12:02:15;27.62;40.92
67862;DHT22;54665;51.462;6.698;2022-08-21T12:04:55;28.00;40.66
67862;DHT22;54665;51.462;6.698;2022-08-21T12:07:38;27.89;39.93
67862;DHT22;54665;51.462;6.698;2022-08-21T12:10:08;27.30;41.24
67862;DHT22;54665;51.462;6.698;2022-08-21T12:12:37;28.05;41.21
67862;DHT22;54665;51.462;6.698;2022-08-21T12:25:37;28.77;38.45
67862;DHT22;54665;51.462;6.698;2022-08-21T12:28:08;27.90;39.86
67862;DHT22;54665;51.462;6.698;2022-08-21T12:30:40;27.03;41.49
67862;DHT22;54665;51.462;6.698;2022-08-21T12:33:27;27.51;40.78
67862;DHT22;54665;51.462;6.698;2022-08-21T12:36:03;28.20;38.52
67862;DHT22;54665;51.462;6.698;2022-08-21T12:38:34;28.33;37.85
67862;DHT22;54665;51.462;6.698;2022-08-21T12:41:16;28.68;38.72
67862;DHT22;54665;51.462;6.698;2022-08-21T12:43:50;28.50;39.37
67862;DHT22;54665;51.462;6.698;2022-08-21T12:46:21;27.73;38.81
67862;DHT22;54665;51.462;6.698;2022-08-21T12:49:05;27.84;38.73
67862;DHT22;54665;51.462;6.698;2022-08-21T12:51:43;27.28;39.92
67862;DHT22;54665;51.462;6.698;2022-08-21T12:54:23;26.75;40.89
67862;DHT22;54665;51.462;6.698;2022-08-21T12:57:03;26.29;42.36
67862;DHT22;54665;51.462;6.698;2022-08-21T12:59:29;27.01;41.25
67862;DHT22;54665;51.462;6.698;2022-08-21T13:01:56;27.35;38.67
67862;DHT22;54665;51.462;6.698;2022-08-21T13:04:36;27.92;37.10
67862;DHT22;54665;51.462;6.698;2022-08-21T13:07:07;27.98;37.20
67862;DHT22;54665;51.462;6.698;2022-08-21T13:09:42;27.62;39.08
67862;DHT22;54665;51.462;6.698;2022-08-21T13:12:09;27.49;39.52
67862;DHT22;54665;51.462;6.698;2022-08-21T13:14:38;27.78;38.57
67862;DHT22;54665;51.462;6.698;2022-08-21T13:17:05;27.96;39.26
67862;DHT22;54665;51.462;6.698;2022-08-21T13:19:33;28.00;39.14
67862;DHT22;54665;51.462;6.698;2022-08-21T13:21:59;27.26;40.58
67862;DHT22;54665;51.462;6.698;2022-08-21T13:24:29;26.86;41.63
67862;DHT22;54665;51.462;6.698;2022-08-21T13:26:55;26.61;42.04
67862;DHT22;54665;51.462;6.698;2022-08-21T13:29:27;25.98;43.91
67862;DHT22;54665;51.462;6.698;2022-08-21T13:31:55;26.67;42.89
67862;DHT22;54665;51.462;6.698;2022-08-21T13:34:25;26.84;42.32
67862;DHT22;54665;51.462;6.698;2022-08-21T13:36:55;27.07;40.94
67862;DHT22;54665;51.462;6.698;2022-08-21T13:39:23;27.17;40.96
67862;DHT22;54665;51.462;6.698;2022-08-21T13:41:52;27.55;40.63
67862;DHT22;54665;51.462;6.698;2022-08-21T13:44:22;28.10;41.58
67862;DHT22;54665;51.462;6.698;2022-08-21T13:46:52;28.09;39.31
67862;DHT22;54665;51.462;6.698;2022-08-21T13:49:21;27.69;39.43
67862;DHT22;54665;51.462;6.698;2022-08-21T13:51:48;27.24;40.16
67862;DHT22;54665;51.462;6.698;2022-08-21T13:54:38;26.73;42.35
67862;DHT22;54665;51.462;6.698;2022-08-21T13:57:16;26.70;41.88
67862;DHT22;54665;51.462;6.698;2022-08-21T13:59:41;26.39;41.62
67862;DHT22;54665;51.462;6.698;2022-08-21T14:02:16;26.35;41.36
67862;DHT22;54665;51.462;6.698;2022-08-21T14:04:57;26.14;42.60
67862;DHT22;54665;51.462;6.698;2022-08-21T14:07:28;25.87;43.11
67862;DHT22;54665;51.462;6.698;2022-08-21T14:09:54;26.02;42.06
67862;DHT22;54665;51.462;6.698;2022-08-21T14:12:26;26.16;42.19
67862;DHT22;54665;51.462;6.698;2022-08-21T14:14:53;26.55;40.65
67862;DHT22;54665;51.462;6.698;2022-08-21T14:17:32;26.21;42.74
67862;DHT22;54665;51.462;6.698;2022-08-21T14:19:58;25.88;43.21
67862;DHT22;54665;51.462;6.698;2022-08-21T14:22:30;26.06;43.50
67862;DHT22;54665;51.462;6.698;2022-08-21T14:25:04;27.24;40.54
67862;DHT22;54665;51.462;6.698;2022-08-21T14:27:32;28.06;38.78
67862;DHT22;54665;51.462;6.698;2022-08-21T14:30:01;27.93;39.40
67862;DHT22;54665;51.462;6.698;2022-08-21T14:32:28;28.72;38.97
67862;DHT22;54665;51.462;6.698;2022-08-21T14:34:56;28.80;38.61
67862;DHT22;54665;51.462;6.698;2022-08-21T14:37:23;28.78;37.26
67862;DHT22;54665;51.462;6.698;2022-08-21T14:39:49;27.79;38.62
67862;DHT22;54665;51.462;6.698;2022-08-21T14:42:15;27.63;39.32
67862;DHT22;54665;51.462;6.698;2022-08-21T14:44:40;28.05;39.01
67862;DHT22;54665;51.462;6.698;2022-08-21T14:47:08;27.95;38.80
67862;DHT22;54665;51.462;6.698;2022-08-21T14:49:33;28.41;37.56
67862;DHT22;54665;51.462;6.698;2022-08-21T14:51:59;28.17;38.25
67862;DHT22;54665;51.462;6.698;2022-08-21T14:54:26;27.85;37.85
67862;DHT22;54665;51.462;6.698;2022-08-21T14:56:51;28.08;37.43
67862;DHT22;54665;51.462;6.698;2022-08-21T14:59:17;28.30;37.52
67862;DHT22;54665;51.462;6.698;2022-08-21T15:01:45;28.44;37.59
67862;DHT22;54665;51.462;6.698;2022-08-21T15:04:10;28.44;36.97
67862;DHT22;54665;51.462;6.698;2022-08-21T15:06:36;27.99;37.39
67862;DHT22;54665;51.462;6.698;2022-08-21T15:09:02;27.99;37.86
67862;DHT22;54665;51.462;6.698;2022-08-21T15:11:30;27.93;38.36
67862;DHT22;54665;51.462;6.698;2022-08-21T15:14:00;27.95;37.85
67862;DHT22;54665;51.462;6.698;2022-08-21T15:16:27;27.89;37.89
67862;DHT22;54665;51.462;6.698;2022-08-21T15:18:53;27.75;38.43
67862;DHT22;54665;51.462;6.698;2022-08-21T15:21:21;26.79;39.46
67862;DHT22;54665;51.462;6.698;2022-08-21T15:23:47;26.39;41.43
67862;DHT22;54665;51.462;6.698;2022-08-21T15:26:12;27.07;40.00
67862;DHT22;54665;51.462;6.698;2022-08-21T15:28:38;27.69;38.15
67862;DHT22;54665;51.462;6.698;2022-08-21T15:31:04;27.90;37.23
67862;DHT22;54665;51.462;6.698;2022-08-21T15:33:30;28.16;37.24
67862;DHT22;54665;51.462;6.698;2022-08-21T15:35:56;27.57;37.51
67862;DHT22;54665;51.462;6.698;2022-08-21T15:38:21;27.99;36.59
67862;DHT22;54665;51.462;6.698;2022-08-21T15:40:47;28.37;35.59
67862;DHT22;54665;51.462;6.698;2022-08-21T15:43:28;28.26;35.34
67862;DHT22;54665;51.462;6.698;2022-08-21T15:45:55;28.43;35.51
67862;DHT22;54665;51.462;6.698;2022-08-21T15:48:21;28.71;34.77
67862;DHT22;54665;51.462;6.698;2022-08-21T15:50:46;29.14;34.19
67862;DHT22;54665;51.462;6.698;2022-08-21T15:53:12;29.26;34.45
67862;DHT22;54665;51.462;6.698;2022-08-21T15:55:38;29.22;34.62
67862;DHT22;54665;51.462;6.698;2022-08-21T15:58:04;28.12;36.13
67862;DHT22;54665;51.462;6.698;2022-08-21T16:00:32;27.27;37.05
67862;DHT22;54665;51.462;6.698;2022-08-21T16:02:59;27.31;37.00
67862;DHT22;54665;51.462;6.698;2022-08-21T16:05:25;26.66;38.02
67862;DHT22;54665;51.462;6.698;2022-08-21T16:07:51;26.53;37.64
67862;DHT22;54665;51.462;6.698;2022-08-21T16:10:19;26.24;38.56
67862;DHT22;54665;51.462;6.698;2022-08-21T16:12:54;25.98;39.15
67862;DHT22;54665;51.462;6.698;2022-08-21T16:15:20;25.91;39.43
67862;DHT22;54665;51.462;6.698;2022-08-21T16:17:47;25.66;40.35
67862;DHT22;54665;51.462;6.698;2022-08-21T16:20:18;25.50;40.96
67862;DHT22;54665;51.462;6.698;2022-08-21T16:22:44;25.44;39.81
67862;DHT22;54665;51.462;6.698;2022-08-21T16:25:09;25.34;40.18
67862;DHT22;54665;51.462;6.698;2022-08-21T16:27:35;25.26;39.62
67862;DHT22;54665;51.462;6.698;2022-08-21T16:30:01;25.13;40.00
67862;DHT22;54665;51.462;6.698;2022-08-21T16:32:27;24.95;40.05
67862;DHT22;54665;51.462;6.698;2022-08-21T16:34:54;24.90;40.40
67862;DHT22;54665;51.462;6.698;2022-08-21T16:37:19;24.90;40.68
67862;DHT22;54665;51.462;6.698;2022-08-21T16:39:46;24.87;39.82
67862;DHT22;54665;51.462;6.698;2022-08-21T16:42:13;24.90;40.72
67862;DHT22;54665;51.462;6.698;2022-08-21T16:44:41;25.09;39.81